LIMC METAR and TAF | Updated Today

LIMC METAR

Malpensa International Airport

Observation time: 7 min. ago

LIMC 061950Z 11011KT 9999 BKN045 04/M01 Q1031 NOSIG

Need help? Read our tutorial on how to read METARs or read the parsed version below.

Malpensa International Airport (LIMC) METAR

  • Weather conditions on Mon, 06 Feb 2023 19:50:00 +0000 (7 min. ago):
  • Present conditions: Dry
  • Clouds: Broken sky at 1372 meters
  • Visibility: Greater than 10 km
  • Wind: 110 degrees at 11 knots
  • Temperature: 4 celsius
  • Dew point: -1 celsius
  • Pressure: 1031 millibars
  • Remarks: None


Useful to know...

LIMC TAF

Malpensa International Airport

TAF LIMC 061700Z 0618/0724 VRB05KT 9999 BKN040 PROB30 TEMPO 0620/0624 4000 RASN
Observation time: 2:57 hr. ago
Need help? Read our tutorial on how to read TAFs or read the parsed version below.

Parsed version of TAF for Malpensa International Airport (LIMC)

  • From 06 February at 18:00 UTC, to day 07 of the month at 24:00 UTC
  • Clouds: Broken sky at 1219 meters
  • Visibility: Greater than 10 km
  • Wind: Variable at 5
  • Expected to arise temporarily, from 06 February at 20:00 UTC, to day 06 of the month at 24:00 UTC
    Probability of 30%
  • Visibility: 4000 meters
  • Other: Rain snow